createdAt,value
2018-07-08T00:02:16.294Z,58.30
2018-07-08T00:04:44.911Z,58.40
2018-07-08T00:07:12.773Z,58.70
2018-07-08T00:09:40.563Z,58.80
2018-07-08T00:12:08.460Z,58.70
2018-07-08T00:14:36.407Z,58.90
2018-07-08T00:17:04.221Z,58.90
2018-07-08T00:19:32.023Z,59.20
2018-07-08T00:21:59.871Z,59.40
2018-07-08T00:24:27.673Z,59.50
2018-07-08T00:26:55.485Z,59.60
2018-07-08T00:29:23.337Z,59.70
2018-07-08T00:31:51.141Z,59.90
2018-07-08T00:34:19.132Z,60.20
2018-07-08T00:36:47.052Z,60.50
2018-07-08T00:39:15.016Z,60.70
2018-07-08T00:41:42.833Z,61.00
2018-07-08T00:44:10.654Z,61.40
2018-07-08T00:46:38.506Z,61.60
2018-07-08T00:49:06.549Z,61.80
2018-07-08T00:51:34.423Z,61.90
2018-07-08T00:54:02.550Z,62.20
2018-07-08T00:56:30.620Z,62.20
2018-07-08T00:58:58.475Z,62.50
2018-07-08T01:01:26.346Z,63.00
2018-07-08T01:03:54.290Z,63.30
2018-07-08T01:06:22.081Z,63.30
2018-07-08T01:08:50.059Z,63.60
2018-07-08T01:11:17.897Z,63.80
2018-07-08T01:13:45.815Z,64.10
2018-07-08T01:16:13.741Z,64.80
2018-07-08T01:18:41.580Z,65.10
2018-07-08T01:21:09.417Z,65.30
2018-07-08T01:23:37.227Z,65.60
2018-07-08T01:26:10.169Z,65.70
2018-07-08T01:28:38.634Z,66.20
2018-07-08T01:31:06.879Z,66.40
2018-07-08T01:33:34.808Z,66.60
2018-07-08T01:36:02.577Z,66.10
2018-07-08T01:38:30.583Z,66.60
2018-07-08T01:40:58.445Z,66.60
2018-07-08T01:43:26.769Z,66.60
2018-07-08T01:45:54.618Z,66.90
2018-07-08T01:48:22.468Z,67.30
2018-07-08T01:53:59.812Z,67.30
2018-07-08T01:56:27.451Z,67.40
2018-07-08T01:58:55.013Z,67.80
2018-07-08T02:01:22.539Z,67.70
2018-07-08T02:03:51.192Z,67.50
2018-07-08T02:06:18.732Z,67.60
2018-07-08T02:08:46.599Z,67.60
2018-07-08T02:13:41.771Z,68.30
2018-07-08T02:16:09.313Z,68.70
2018-07-08T02:18:36.835Z,69.20
2018-07-08T02:21:04.368Z,69.50
2018-07-08T02:23:31.897Z,69.60
2018-07-08T02:25:59.498Z,69.80
2018-07-08T02:28:27.144Z,70.20
2018-07-08T02:30:54.671Z,70.70
2018-07-08T02:33:22.216Z,71.00
2018-07-08T02:35:49.769Z,70.80
2018-07-08T02:38:17.421Z,70.60
2018-07-08T02:40:44.976Z,70.50
2018-07-08T02:43:12.499Z,70.60
2018-07-08T02:45:40.053Z,70.70
2018-07-08T02:48:08.799Z,70.90
2018-07-08T02:50:36.420Z,71.10
2018-07-08T02:53:04.432Z,71.50
2018-07-08T02:55:31.971Z,71.80
2018-07-08T02:57:59.528Z,72.00
2018-07-08T03:00:27.055Z,72.50
2018-07-08T03:02:54.583Z,72.80
2018-07-08T03:05:22.108Z,73.00
2018-07-08T03:07:49.645Z,73.10
2018-07-08T03:10:17.169Z,73.30
2018-07-08T03:12:44.690Z,73.50
2018-07-08T03:15:12.196Z,74.20
2018-07-08T03:17:39.728Z,73.60
2018-07-08T03:20:07.259Z,73.50
2018-07-08T03:22:34.792Z,73.70
2018-07-08T03:25:02.339Z,74.10
2018-07-08T03:27:29.875Z,74.50
2018-07-08T03:29:57.397Z,74.60
2018-07-08T03:32:24.922Z,74.40
2018-07-08T03:34:52.449Z,74.30
2018-07-08T03:37:20.000Z,74.50
2018-07-08T03:39:47.540Z,74.70
2018-07-08T03:42:15.063Z,75.00
2018-07-08T03:44:42.897Z,75.20
2018-07-08T03:47:10.387Z,75.40
2018-07-08T03:49:37.929Z,75.90
2018-07-08T03:52:05.534Z,76.10
2018-07-08T03:54:33.059Z,76.30
2018-07-08T03:57:00.602Z,76.20
2018-07-08T03:59:28.126Z,76.10
2018-07-08T04:01:55.667Z,75.90
2018-07-08T04:04:23.201Z,75.70
2018-07-08T04:06:50.751Z,75.80
2018-07-08T04:09:19.172Z,75.70
2018-07-08T04:11:47.302Z,75.70
2018-07-08T04:14:14.833Z,75.50
2018-07-08T04:16:42.360Z,75.30
2018-07-08T04:19:09.897Z,75.30
2018-07-08T04:21:37.441Z,75.20
2018-07-08T04:24:04.998Z,74.90
2018-07-08T04:26:32.526Z,74.60
2018-07-08T04:29:00.068Z,74.30
2018-07-08T04:31:27.601Z,74.10
2018-07-08T04:33:55.121Z,74.10
2018-07-08T04:36:22.654Z,74.10
2018-07-08T04:38:50.198Z,74.00
2018-07-08T04:41:17.715Z,74.00
2018-07-08T04:43:45.239Z,74.40
2018-07-08T04:46:12.755Z,74.40
2018-07-08T04:48:40.308Z,74.30
2018-07-08T04:51:07.846Z,74.30
2018-07-08T04:53:35.371Z,73.20
2018-07-08T04:56:02.916Z,70.00
2018-07-08T04:58:30.445Z,61.30
2018-07-08T05:00:58.011Z,54.70
2018-07-08T05:03:25.524Z,50.70
2018-07-08T05:05:53.039Z,47.30
2018-07-08T05:08:20.573Z,45.20
2018-07-08T05:10:48.111Z,42.70
2018-07-08T05:13:15.652Z,41.30
2018-07-08T05:15:43.184Z,40.30
2018-07-08T05:18:10.722Z,38.90
2018-07-08T05:20:38.240Z,37.60
2018-07-08T05:23:05.797Z,36.20
2018-07-08T05:25:33.348Z,36.10
2018-07-08T05:28:00.886Z,35.20
2018-07-08T05:30:28.416Z,34.60
2018-07-08T05:32:55.969Z,33.90
2018-07-08T05:35:23.539Z,32.30
2018-07-08T05:37:51.073Z,32.30
2018-07-08T05:40:18.612Z,31.30
2018-07-08T05:42:46.148Z,30.50
2018-07-08T05:45:13.679Z,30.40
2018-07-08T05:47:41.216Z,30.20
2018-07-08T05:50:08.781Z,29.80
2018-07-08T05:52:36.381Z,29.10
2018-07-08T05:55:03.928Z,28.80
2018-07-08T05:57:31.471Z,29.00
2018-07-08T05:59:59.026Z,28.60
2018-07-08T06:02:26.584Z,28.50
2018-07-08T06:04:54.116Z,28.90
2018-07-08T06:07:21.651Z,28.70
2018-07-08T06:09:49.205Z,28.20
2018-07-08T06:12:16.744Z,28.20
2018-07-08T06:14:44.290Z,27.80
2018-07-08T06:17:11.819Z,27.40
2018-07-08T06:19:39.357Z,27.10
2018-07-08T06:22:06.887Z,27.00
2018-07-08T06:24:34.425Z,27.00
2018-07-08T06:27:01.965Z,27.10
2018-07-08T06:29:29.502Z,26.80
2018-07-08T06:31:57.025Z,26.80
2018-07-08T06:34:29.652Z,26.90
2018-07-08T06:36:57.205Z,26.70
2018-07-08T06:39:24.722Z,26.70
2018-07-08T06:41:52.259Z,26.40
2018-07-08T06:44:19.795Z,26.80
2018-07-08T06:46:47.312Z,26.50
2018-07-08T06:49:14.852Z,26.60
2018-07-08T06:51:42.448Z,26.40
2018-07-08T06:56:37.584Z,26.20
2018-07-08T06:59:05.121Z,26.20
2018-07-08T07:01:32.641Z,26.30
2018-07-08T07:04:00.164Z,26.30
2018-07-08T07:06:27.700Z,26.30
2018-07-08T07:08:55.240Z,26.60
2018-07-08T07:11:22.771Z,26.20
2018-07-08T07:13:50.296Z,26.50
2018-07-08T07:16:17.838Z,26.40
2018-07-08T07:18:45.383Z,26.80
2018-07-08T07:21:12.929Z,27.20
2018-07-08T07:23:40.466Z,27.20
2018-07-08T07:26:07.991Z,27.30
2018-07-08T07:28:35.587Z,26.90
2018-07-08T07:31:03.077Z,26.90
2018-07-08T07:33:30.620Z,27.20
2018-07-08T07:35:58.160Z,27.40
2018-07-08T07:38:25.732Z,27.80
2018-07-08T07:40:53.256Z,27.70
2018-07-08T07:43:20.998Z,27.50
2018-07-08T07:45:48.854Z,27.40
2018-07-08T07:48:16.372Z,27.10
2018-07-08T07:50:43.908Z,27.50
2018-07-08T07:56:13.944Z,27.70
2018-07-08T07:58:41.463Z,28.00
2018-07-08T08:01:09.234Z,28.20
2018-07-08T08:03:42.363Z,28.10
2018-07-08T08:06:09.991Z,28.80
2018-07-08T08:08:37.571Z,29.60
2018-07-08T08:14:30.487Z,30.80
2018-07-08T08:20:28.794Z,30.50
2018-07-08T08:22:56.335Z,30.50
2018-07-08T08:25:25.936Z,30.20
2018-07-08T08:27:53.468Z,30.60
2018-07-08T08:30:21.003Z,30.60
2018-07-08T08:32:48.558Z,30.60
2018-07-08T08:35:20.134Z,30.60
2018-07-08T08:37:52.512Z,30.60
2018-07-08T08:40:21.293Z,30.60
2018-07-08T08:42:54.476Z,30.30
2018-07-08T08:45:23.263Z,30.20
2018-07-08T08:47:50.800Z,30.00
2018-07-08T08:50:18.346Z,30.50
2018-07-08T08:52:45.884Z,30.40
2018-07-08T08:55:13.712Z,30.50
2018-07-08T08:57:41.276Z,30.60
2018-07-08T09:00:10.883Z,31.30
2018-07-08T09:02:38.520Z,30.60
2018-07-08T09:05:06.416Z,30.90
2018-07-08T09:07:33.992Z,30.80
2018-07-08T09:10:01.528Z,30.80
2018-07-08T09:12:29.048Z,31.80
2018-07-08T09:14:56.576Z,31.10
2018-07-08T09:17:24.233Z,30.80
2018-07-08T09:19:51.753Z,31.20
2018-07-08T09:22:19.316Z,31.90
2018-07-08T09:24:46.857Z,32.10
2018-07-08T09:27:14.401Z,32.30
2018-07-08T09:29:41.960Z,32.10
2018-07-08T09:32:09.517Z,32.20
2018-07-08T09:34:37.052Z,31.50
2018-07-08T09:37:04.579Z,31.10
2018-07-08T09:39:32.125Z,31.20
2018-07-08T09:41:59.639Z,30.40
2018-07-08T09:44:27.185Z,30.20
2018-07-08T09:46:54.695Z,30.10
2018-07-08T09:49:22.219Z,29.80
2018-07-08T09:51:49.765Z,29.50
2018-07-08T09:54:17.284Z,29.70
2018-07-08T09:56:44.956Z,29.90
2018-07-08T09:59:12.484Z,29.60
2018-07-08T10:01:48.602Z,29.50
2018-07-08T10:04:18.386Z,29.90
2018-07-08T10:06:46.780Z,29.90
2018-07-08T10:09:15.660Z,29.70
2018-07-08T10:11:43.200Z,29.40
2018-07-08T10:14:13.957Z,29.40
2018-07-08T10:16:41.615Z,29.60
2018-07-08T10:19:09.686Z,29.30
2018-07-08T10:21:37.229Z,28.80
2018-07-08T10:24:04.784Z,29.10
2018-07-08T10:26:32.503Z,29.10
2018-07-08T10:29:00.039Z,28.80
2018-07-08T10:31:44.544Z,29.20
2018-07-08T10:40:15.321Z,29.30
2018-07-08T10:42:42.853Z,29.20
2018-07-08T10:45:10.418Z,29.00
2018-07-08T10:47:37.946Z,28.40
2018-07-08T10:50:05.534Z,28.30
2018-07-08T10:52:33.023Z,28.30
2018-07-08T10:55:00.585Z,28.70
2018-07-08T10:57:28.115Z,28.90
2018-07-08T10:59:55.699Z,28.90
2018-07-08T11:02:23.224Z,29.50
2018-07-08T11:04:50.782Z,30.30
2018-07-08T11:07:18.323Z,30.00
2018-07-08T11:09:45.865Z,30.00
2018-07-08T11:12:13.401Z,30.70
2018-07-08T11:14:41.060Z,31.00
2018-07-08T11:17:08.621Z,30.20
2018-07-08T11:19:36.206Z,30.00
2018-07-08T11:22:03.760Z,30.00
2018-07-08T11:24:31.292Z,30.40
2018-07-08T11:26:58.827Z,30.90
2018-07-08T11:29:26.345Z,30.80
2018-07-08T11:31:53.887Z,31.50
2018-07-08T11:34:21.410Z,31.80
2018-07-08T11:36:48.953Z,31.10
2018-07-08T11:39:16.476Z,30.40
2018-07-08T11:41:44.031Z,30.00
2018-07-08T11:44:11.543Z,30.00
2018-07-08T11:46:39.420Z,30.70
2018-07-08T11:49:07.048Z,31.20
2018-07-08T11:51:34.599Z,32.00
2018-07-08T11:54:02.147Z,32.20
2018-07-08T11:56:29.694Z,31.60
2018-07-08T11:59:01.024Z,31.10
2018-07-08T12:01:28.808Z,30.20
2018-07-08T12:03:56.366Z,29.80
2018-07-08T12:06:23.960Z,29.60
2018-07-08T12:08:51.529Z,29.80
2018-07-08T12:11:19.059Z,30.20
2018-07-08T12:13:46.610Z,30.50
2018-07-08T12:16:14.668Z,30.20
2018-07-08T12:18:42.216Z,29.80
2018-07-08T12:21:09.759Z,29.90
2018-07-08T12:23:39.852Z,30.10
2018-07-08T12:26:07.379Z,30.90
2018-07-08T12:28:34.926Z,31.30
2018-07-08T12:31:02.498Z,31.30
2018-07-08T12:33:30.032Z,31.90
2018-07-08T12:35:57.597Z,32.20
2018-07-08T12:38:25.138Z,31.30
2018-07-08T12:40:53.475Z,30.60
2018-07-08T12:43:21.048Z,29.90
2018-07-08T12:46:06.448Z,29.70
2018-07-08T12:48:34.003Z,30.70
2018-07-08T12:51:01.568Z,31.50
2018-07-08T12:53:30.197Z,32.30
2018-07-08T12:55:58.000Z,32.90
2018-07-08T12:58:26.062Z,33.90
2018-07-08T13:00:53.856Z,35.30
2018-07-08T13:03:21.925Z,34.80
2018-07-08T13:05:49.768Z,34.10
2018-07-08T13:08:17.754Z,34.00
2018-07-08T13:10:45.733Z,33.60
2018-07-08T13:13:13.777Z,33.80
2018-07-08T13:15:41.652Z,34.80
2018-07-08T13:18:09.521Z,34.50
2018-07-08T13:20:37.608Z,33.10
2018-07-08T13:23:05.459Z,32.70
2018-07-08T13:25:33.476Z,33.00
2018-07-08T13:28:01.297Z,33.00
2018-07-08T13:30:29.176Z,33.60
2018-07-08T13:32:57.016Z,34.00
2018-07-08T13:35:24.900Z,34.90
2018-07-08T13:37:53.053Z,35.70
2018-07-08T13:40:39.542Z,36.80
2018-07-08T13:43:07.348Z,37.50
2018-07-08T13:45:35.145Z,37.30
2018-07-08T13:48:22.417Z,36.00
2018-07-08T13:50:59.962Z,34.80
2018-07-08T13:53:27.785Z,34.50
2018-07-08T13:55:55.544Z,34.50
2018-07-08T13:58:37.525Z,33.80
2018-07-08T14:01:05.371Z,32.30
2018-07-08T14:03:33.189Z,32.20
2018-07-08T14:06:00.991Z,32.30
2018-07-08T14:08:28.811Z,31.60
2018-07-08T14:10:56.650Z,31.50
2018-07-08T14:13:24.398Z,32.50
2018-07-08T14:15:52.153Z,33.60
2018-07-08T14:18:19.977Z,33.90
2018-07-08T14:20:47.859Z,33.60
2018-07-08T14:23:15.695Z,32.80
2018-07-08T14:25:43.586Z,32.90
2018-07-08T14:28:11.332Z,33.20
2018-07-08T14:30:39.097Z,33.70
2018-07-08T14:33:06.949Z,35.20
2018-07-08T14:35:35.156Z,35.60
2018-07-08T14:38:03.016Z,36.40
2018-07-08T14:40:30.907Z,36.20
2018-07-08T14:42:58.753Z,36.00
2018-07-08T14:45:26.548Z,35.30
2018-07-08T14:47:54.380Z,34.70
2018-07-08T14:50:22.204Z,33.50
2018-07-08T14:55:50.256Z,32.90
2018-07-08T15:00:45.958Z,32.70
2018-07-08T15:03:13.766Z,32.30
2018-07-08T15:05:41.609Z,31.70
2018-07-08T15:08:10.287Z,31.60
2018-07-08T15:10:38.102Z,32.30
2018-07-08T15:13:05.987Z,32.60
2018-07-08T15:15:33.888Z,32.60
2018-07-08T15:18:01.729Z,32.40
2018-07-08T15:23:42.237Z,33.20
2018-07-08T15:26:10.025Z,33.90
2018-07-08T15:28:37.820Z,34.80
2018-07-08T15:31:05.589Z,35.60
2018-07-08T15:33:33.312Z,36.40
2018-07-08T15:36:01.048Z,37.20
2018-07-08T15:38:29.024Z,38.00
2018-07-08T15:40:56.790Z,38.70
2018-07-08T15:43:24.561Z,39.20
2018-07-08T15:45:52.327Z,40.20
2018-07-08T15:48:20.129Z,40.70
2018-07-08T15:50:47.848Z,41.30
2018-07-08T15:53:15.584Z,41.90
2018-07-08T15:55:43.452Z,42.40
2018-07-08T15:58:11.280Z,42.90
2018-07-08T16:00:39.185Z,43.20
2018-07-08T16:03:06.924Z,43.30
2018-07-08T16:05:34.729Z,43.20
2018-07-08T16:08:02.508Z,43.10
2018-07-08T16:10:30.327Z,43.10
2018-07-08T16:12:58.076Z,43.90
2018-07-08T16:15:25.881Z,43.50
2018-07-08T16:17:53.749Z,43.50
2018-07-08T16:20:21.526Z,43.40
2018-07-08T16:22:49.340Z,43.00
2018-07-08T16:25:17.138Z,42.60
2018-07-08T16:27:44.897Z,41.80
2018-07-08T16:30:12.654Z,41.20
2018-07-08T16:32:40.436Z,40.70
2018-07-08T16:35:08.241Z,40.10
2018-07-08T16:37:35.976Z,39.50
2018-07-08T16:40:03.721Z,38.20
2018-07-08T16:42:31.549Z,37.90
2018-07-08T16:44:59.315Z,37.70
2018-07-08T16:47:27.095Z,37.30
2018-07-08T16:49:54.889Z,36.20
2018-07-08T16:52:22.757Z,36.40
2018-07-08T16:54:50.526Z,37.00
2018-07-08T16:57:18.231Z,37.20
2018-07-08T16:59:45.952Z,37.40
2018-07-08T17:02:14.153Z,37.90
2018-07-08T17:04:41.904Z,38.30
2018-07-08T17:07:09.669Z,38.80
2018-07-08T17:09:37.347Z,39.40
2018-07-08T17:12:05.800Z,39.70
2018-07-08T17:14:33.514Z,40.20
2018-07-08T17:17:01.274Z,40.50
2018-07-08T17:19:29.083Z,40.80
2018-07-08T17:21:56.847Z,40.90
2018-07-08T17:24:24.666Z,40.90
2018-07-08T17:26:52.937Z,40.90
2018-07-08T17:29:20.644Z,41.00
2018-07-08T17:31:49.617Z,41.00
2018-07-08T17:34:17.361Z,41.10
2018-07-08T17:36:45.218Z,41.50
2018-07-08T17:39:12.983Z,41.80
2018-07-08T17:41:40.723Z,41.70
2018-07-08T17:44:08.484Z,41.80
2018-07-08T17:46:36.480Z,42.00
2018-07-08T17:49:04.159Z,42.50
2018-07-08T17:51:31.968Z,43.00
2018-07-08T17:53:59.864Z,42.90
2018-07-08T17:56:27.632Z,42.80
2018-07-08T17:58:55.459Z,42.90
2018-07-08T18:01:23.498Z,43.10
2018-07-08T18:03:51.312Z,43.40
2018-07-08T18:06:19.136Z,44.00
2018-07-08T18:08:46.963Z,44.30
2018-07-08T18:11:14.699Z,44.40
2018-07-08T18:13:42.540Z,44.50
2018-07-08T18:16:10.305Z,44.60
2018-07-08T18:18:38.012Z,44.80
2018-07-08T18:21:05.780Z,45.00
2018-07-08T18:23:33.688Z,45.30
2018-07-08T18:26:01.523Z,46.10
2018-07-08T18:28:29.301Z,45.70
2018-07-08T18:30:57.080Z,46.00
2018-07-08T18:33:24.948Z,46.40
2018-07-08T18:35:52.704Z,46.70
2018-07-08T18:38:20.424Z,46.90
2018-07-08T18:40:48.254Z,47.20
2018-07-08T18:43:16.029Z,47.50
2018-07-08T18:45:44.225Z,47.80
2018-07-08T18:48:11.930Z,48.30
2018-07-08T18:50:39.732Z,48.60
2018-07-08T18:53:07.473Z,48.90
2018-07-08T18:55:35.283Z,49.20
2018-07-08T18:58:03.068Z,49.70
2018-07-08T19:00:30.827Z,49.80
2018-07-08T19:02:58.590Z,50.10
2018-07-08T19:05:26.344Z,50.40
2018-07-08T19:07:54.140Z,50.70
2018-07-08T19:10:21.905Z,51.20
2018-07-08T19:12:49.989Z,51.60
2018-07-08T19:15:17.791Z,52.60
2018-07-08T19:17:45.600Z,52.50
2018-07-08T19:20:13.417Z,53.00
2018-07-08T19:22:41.208Z,53.40
2018-07-08T19:25:08.984Z,53.80
2018-07-08T19:27:36.753Z,54.10
2018-07-08T19:30:04.804Z,54.50
2018-07-08T19:32:32.804Z,54.60
2018-07-08T19:35:00.914Z,54.80
2018-07-08T19:37:29.051Z,55.10
2018-07-08T19:39:56.829Z,55.40
2018-07-08T19:42:24.669Z,55.50
2018-07-08T19:44:53.484Z,55.50
2018-07-08T19:47:21.282Z,55.60
2018-07-08T19:49:49.211Z,55.70
2018-07-08T19:52:16.939Z,55.90
2018-07-08T19:54:44.805Z,56.40
2018-07-08T19:57:12.496Z,56.70
2018-07-08T19:59:40.297Z,56.70
2018-07-08T20:02:08.134Z,56.80
2018-07-08T20:04:36.017Z,57.00
2018-07-08T20:07:03.734Z,57.40
2018-07-08T20:09:31.521Z,57.90
2018-07-08T20:11:59.729Z,58.20
2018-07-08T20:14:27.533Z,58.40
2018-07-08T20:16:55.494Z,58.80
2018-07-08T20:21:51.398Z,59.50
2018-07-08T20:24:19.186Z,59.70
2018-07-08T20:26:46.955Z,59.80
2018-07-08T20:29:14.782Z,60.10
2018-07-08T20:32:10.897Z,60.30
2018-07-08T20:37:06.533Z,60.70
2018-07-08T20:39:34.336Z,60.80
2018-07-08T20:42:02.084Z,60.80
2018-07-08T20:44:29.871Z,60.90
2018-07-08T20:46:57.640Z,60.80
2018-07-08T20:49:25.870Z,61.00
2018-07-08T20:51:56.037Z,60.30
2018-07-08T20:54:23.886Z,61.00
2018-07-08T20:56:51.707Z,62.10
2018-07-08T20:59:19.540Z,61.40
2018-07-08T21:01:47.437Z,61.50
2018-07-08T21:04:15.188Z,61.90
2018-07-08T21:06:43.277Z,61.50
2018-07-08T21:09:11.066Z,61.70
2018-07-08T21:11:38.912Z,61.90
2018-07-08T21:14:06.650Z,62.20
2018-07-08T21:16:34.353Z,62.20
2018-07-08T21:19:02.509Z,62.50
2018-07-08T21:21:30.347Z,62.50
2018-07-08T21:26:25.885Z,62.50
2018-07-08T21:28:53.748Z,62.60
2018-07-08T21:31:21.692Z,62.60
2018-07-08T21:33:49.463Z,62.60
2018-07-08T21:36:17.416Z,62.80
2018-07-08T21:38:45.213Z,62.80
2018-07-08T21:41:13.008Z,62.90
2018-07-08T21:43:40.794Z,63.10
2018-07-08T21:46:08.569Z,63.10
2018-07-08T21:57:40.270Z,63.20
2018-07-08T22:00:08.390Z,63.20
2018-07-08T22:02:36.172Z,63.30
2018-07-08T22:05:03.892Z,63.40
2018-07-08T22:08:02.663Z,63.40
2018-07-08T22:10:31.051Z,63.40
2018-07-08T22:13:02.020Z,63.50
2018-07-08T22:15:34.037Z,63.60
2018-07-08T22:18:14.186Z,63.80
2018-07-08T22:23:46.883Z,63.50
2018-07-08T22:29:18.632Z,63.40
2018-07-08T22:31:46.425Z,63.30
2018-07-08T22:34:14.207Z,63.30
2018-07-08T22:36:41.950Z,63.40
2018-07-08T22:39:13.161Z,63.60
2018-07-08T22:41:40.848Z,63.90
2018-07-08T22:46:36.788Z,65.30
2018-07-08T22:52:08.209Z,67.40
2018-07-08T22:54:35.981Z,68.30
2018-07-08T22:57:10.129Z,68.90
2018-07-08T22:59:55.467Z,69.40
2018-07-08T23:02:39.977Z,70.00
2018-07-08T23:05:07.756Z,70.50
2018-07-08T23:07:35.560Z,70.80
2018-07-08T23:10:03.368Z,71.20
2018-07-08T23:12:31.085Z,71.40
2018-07-08T23:14:58.841Z,71.60
2018-07-08T23:17:26.600Z,72.00
2018-07-08T23:19:54.329Z,72.20
2018-07-08T23:25:01.428Z,72.50
2018-07-08T23:27:29.153Z,72.50
2018-07-08T23:29:56.889Z,72.80
2018-07-08T23:32:24.904Z,73.00
2018-07-08T23:34:52.956Z,73.20
2018-07-08T23:37:20.781Z,73.40
2018-07-08T23:39:48.533Z,73.50
2018-07-08T23:42:16.437Z,73.70
2018-07-08T23:44:44.348Z,73.50
2018-07-08T23:47:12.071Z,73.60
2018-07-08T23:49:39.883Z,73.80
2018-07-08T23:52:07.672Z,73.80
2018-07-08T23:54:35.480Z,73.70
2018-07-08T23:57:03.208Z,73.80
2018-07-08T23:59:31.003Z,73.80
